createdAt,value
2019-04-07T00:01:04.844Z,43.50
2019-04-07T00:03:38.986Z,43.80
2019-04-07T00:06:13.485Z,43.70
2019-04-07T00:08:48.196Z,43.70
2019-04-07T00:11:22.949Z,43.40
2019-04-07T00:13:56.879Z,43.60
2019-04-07T00:16:30.945Z,43.70
2019-04-07T00:19:04.352Z,43.90
2019-04-07T00:21:38.387Z,44.00
2019-04-07T00:24:12.624Z,43.80
2019-04-07T00:26:46.282Z,43.40
2019-04-07T00:29:20.531Z,43.10
2019-04-07T00:31:54.714Z,42.90
2019-04-07T00:34:27.859Z,42.70
2019-04-07T00:37:01.957Z,42.90
2019-04-07T00:39:36.186Z,42.60
2019-04-07T00:42:10.556Z,42.60
2019-04-07T00:44:44.320Z,42.90
2019-04-07T00:47:18.541Z,42.40
2019-04-07T00:49:52.306Z,42.30
2019-04-07T00:52:26.023Z,42.10
2019-04-07T00:55:00.334Z,42.40
2019-04-07T00:57:33.934Z,42.80
2019-04-07T01:00:08.744Z,42.50
2019-04-07T01:02:42.945Z,42.40
2019-04-07T01:05:16.897Z,42.50
2019-04-07T01:07:50.107Z,42.50
2019-04-07T01:10:24.248Z,42.40
2019-04-07T01:12:58.967Z,42.20
2019-04-07T01:15:33.974Z,42.50
2019-04-07T01:18:07.774Z,42.70
2019-04-07T01:20:41.924Z,43.00
2019-04-07T01:23:16.031Z,43.00
2019-04-07T01:25:50.078Z,41.90
2019-04-07T01:28:24.122Z,41.80
2019-04-07T01:30:57.975Z,41.90
2019-04-07T01:33:32.343Z,43.20
2019-04-07T01:36:06.084Z,43.70
2019-04-07T01:38:40.079Z,43.70
2019-04-07T01:41:22.952Z,43.20
2019-04-07T01:47:00.465Z,43.70
2019-04-07T01:49:42.360Z,43.50
2019-04-07T01:52:21.600Z,43.10
2019-04-07T01:55:06.077Z,43.40
2019-04-07T01:57:56.993Z,43.40
2019-04-07T02:00:58.744Z,43.80
2019-04-07T02:03:55.303Z,43.90
2019-04-07T02:06:45.623Z,43.80
2019-04-07T02:09:29.086Z,43.90
2019-04-07T02:12:24.814Z,43.80
2019-04-07T02:15:12.688Z,44.00
2019-04-07T02:18:08.018Z,44.50
2019-04-07T02:21:05.311Z,44.50
2019-04-07T02:24:06.467Z,44.60
2019-04-07T02:27:05.662Z,44.50
2019-04-07T02:30:00.512Z,44.20
2019-04-07T02:32:58.273Z,44.60
2019-04-07T02:35:40.155Z,44.80
2019-04-07T02:38:42.376Z,44.50
2019-04-07T02:41:26.052Z,44.80
2019-04-07T02:44:25.147Z,44.70
2019-04-07T02:47:06.558Z,44.60
2019-04-07T02:49:47.537Z,44.70
2019-04-07T02:52:52.838Z,44.70
2019-04-07T02:55:33.514Z,44.40
2019-04-07T02:58:15.930Z,44.60
2019-04-07T03:01:24.025Z,44.30
2019-04-07T03:04:10.331Z,44.30
2019-04-07T03:06:58.657Z,44.30
2019-04-07T03:10:09.378Z,44.40
2019-04-07T03:13:07.312Z,44.50
2019-04-07T03:15:46.209Z,45.00
2019-04-07T03:18:37.402Z,45.30
2019-04-07T03:21:45.807Z,45.10
2019-04-07T03:24:36.999Z,45.20
2019-04-07T03:27:27.197Z,44.70
2019-04-07T03:30:24.760Z,44.30
2019-04-07T03:33:14.110Z,44.20
2019-04-07T03:36:11.680Z,44.10
2019-04-07T03:38:53.748Z,43.50
2019-04-07T03:41:47.190Z,43.60
2019-04-07T03:44:40.810Z,43.50
2019-04-07T03:47:34.565Z,43.50
2019-04-07T03:50:25.663Z,43.20
2019-04-07T03:53:33.662Z,43.20
2019-04-07T03:56:28.818Z,42.80
2019-04-07T03:59:30.269Z,42.70
2019-04-07T04:02:25.011Z,42.70
2019-04-07T04:05:18.916Z,42.70
2019-04-07T04:08:14.360Z,42.50
2019-04-07T04:10:54.260Z,42.70
2019-04-07T04:13:42.973Z,42.40
2019-04-07T04:16:23.865Z,42.20
2019-04-07T04:18:57.466Z,41.90
2019-04-07T04:21:32.775Z,41.60
2019-04-07T04:24:06.816Z,41.50
2019-04-07T04:26:40.933Z,41.70
2019-04-07T04:29:15.709Z,41.80
2019-04-07T04:31:49.404Z,41.90
2019-04-07T04:34:23.830Z,41.70
2019-04-07T04:36:57.400Z,41.50
2019-04-07T04:39:31.517Z,41.70
2019-04-07T04:42:05.513Z,42.30
2019-04-07T04:44:40.493Z,41.40
2019-04-07T04:47:14.593Z,41.50
2019-04-07T04:49:48.391Z,41.60
2019-04-07T04:52:22.559Z,41.60
2019-04-07T04:54:55.426Z,41.50
2019-04-07T04:57:29.307Z,41.30
2019-04-07T05:00:05.055Z,41.00
2019-04-07T05:02:39.436Z,41.20
2019-04-07T05:05:13.391Z,42.30
2019-04-07T05:07:57.724Z,41.70
2019-04-07T05:10:22.813Z,41.80
2019-04-07T05:12:57.216Z,42.00
2019-04-07T05:15:30.930Z,42.00
2019-04-07T05:18:05.249Z,42.00
2019-04-07T05:20:38.924Z,42.20
2019-04-07T05:23:13.027Z,42.30
2019-04-07T05:25:46.679Z,42.10
2019-04-07T05:28:20.065Z,42.10
2019-04-07T05:30:54.317Z,42.20
2019-04-07T05:33:28.634Z,42.30
2019-04-07T05:36:02.093Z,42.50
2019-04-07T05:38:35.887Z,42.50
2019-04-07T05:41:10.763Z,42.70
2019-04-07T05:43:44.527Z,42.40
2019-04-07T05:46:19.319Z,42.70
2019-04-07T05:48:53.133Z,42.70
2019-04-07T05:51:29.947Z,42.80
2019-04-07T05:54:02.610Z,42.70
2019-04-07T05:56:37.013Z,42.60
2019-04-07T05:59:13.069Z,42.60
2019-04-07T06:01:47.021Z,42.80
2019-04-07T06:04:21.792Z,42.60
2019-04-07T06:06:56.665Z,42.30
2019-04-07T06:09:33.529Z,42.90
2019-04-07T06:12:09.061Z,42.30
2019-04-07T06:14:41.722Z,42.10
2019-04-07T06:17:16.220Z,42.10
2019-04-07T06:19:52.435Z,42.10
2019-04-07T06:22:26.302Z,42.00
2019-04-07T06:25:01.710Z,41.60
2019-04-07T06:27:35.879Z,41.60
2019-04-07T06:30:10.909Z,41.70
2019-04-07T06:32:44.749Z,41.30
2019-04-07T06:35:18.301Z,41.10
2019-04-07T06:37:52.046Z,41.00
2019-04-07T06:40:24.787Z,41.00
2019-04-07T06:42:59.033Z,40.60
2019-04-07T06:45:37.623Z,40.30
2019-04-07T06:48:10.292Z,40.50
2019-04-07T06:51:13.959Z,40.40
2019-04-07T06:54:05.851Z,40.50
2019-04-07T06:57:09.434Z,41.00
2019-04-07T06:59:59.113Z,41.20
2019-04-07T07:02:50.376Z,41.10
2019-04-07T07:05:35.414Z,41.10
2019-04-07T07:08:29.038Z,41.50
2019-04-07T07:11:24.753Z,42.50
2019-04-07T07:14:01.158Z,42.80
2019-04-07T07:16:56.566Z,43.10
2019-04-07T07:19:39.099Z,44.00
2019-04-07T07:22:35.714Z,44.80
2019-04-07T07:25:11.119Z,44.40
2019-04-07T07:27:46.034Z,45.20
2019-04-07T07:30:21.390Z,45.10
2019-04-07T07:32:55.283Z,45.50
2019-04-07T07:35:29.715Z,46.20
2019-04-07T07:38:02.942Z,46.90
2019-04-07T07:40:36.592Z,47.30
2019-04-07T07:43:10.727Z,48.80
2019-04-07T07:45:47.367Z,48.50
2019-04-07T07:48:24.938Z,48.70
2019-04-07T07:50:56.472Z,48.30
2019-04-07T07:53:29.679Z,47.70
2019-04-07T07:56:08.461Z,47.20
2019-04-07T07:58:39.568Z,46.80
2019-04-07T08:01:14.844Z,47.30
2019-04-07T08:03:51.834Z,46.60
2019-04-07T08:06:25.033Z,45.70
2019-04-07T08:09:09.816Z,45.20
2019-04-07T08:11:34.740Z,44.20
2019-04-07T08:14:09.035Z,44.20
2019-04-07T08:16:42.643Z,43.90
2019-04-07T08:19:16.800Z,44.30
2019-04-07T08:21:51.992Z,44.80
2019-04-07T08:24:26.165Z,44.30
2019-04-07T08:27:00.216Z,44.00
2019-04-07T08:29:37.130Z,42.90
2019-04-07T08:32:09.678Z,43.20
2019-04-07T08:34:43.687Z,43.20
2019-04-07T08:37:19.010Z,43.40
2019-04-07T08:39:55.794Z,42.40
2019-04-07T08:42:27.906Z,42.20
2019-04-07T08:45:03.306Z,41.70
2019-04-07T08:47:38.100Z,41.30
2019-04-07T08:50:11.563Z,40.40
2019-04-07T08:52:44.479Z,40.00
2019-04-07T08:55:20.109Z,40.00
2019-04-07T08:57:54.999Z,40.00
2019-04-07T09:00:29.418Z,40.30
2019-04-07T09:03:08.298Z,39.90
2019-04-07T09:05:39.870Z,39.50
2019-04-07T09:08:14.898Z,39.50
2019-04-07T09:11:02.269Z,38.80
2019-04-07T09:13:36.324Z,38.50
2019-04-07T09:16:21.196Z,38.00
2019-04-07T09:19:08.313Z,37.80
2019-04-07T09:22:00.681Z,37.40
2019-04-07T09:25:06.663Z,37.70
2019-04-07T09:27:51.112Z,36.50
2019-04-07T09:30:40.936Z,37.20
2019-04-07T09:33:38.852Z,37.90
2019-04-07T09:36:32.595Z,37.60
2019-04-07T09:39:32.116Z,37.00
2019-04-07T09:42:24.373Z,38.50
2019-04-07T09:45:22.991Z,37.30
2019-04-07T09:48:10.502Z,38.00
2019-04-07T09:51:05.114Z,37.70
2019-04-07T09:53:55.431Z,37.40
2019-04-07T09:56:47.219Z,37.00
2019-04-07T09:59:40.631Z,36.80
2019-04-07T10:02:34.161Z,36.10
2019-04-07T10:05:42.407Z,35.70
2019-04-07T10:08:23.901Z,35.70
2019-04-07T10:11:05.307Z,36.50
2019-04-07T10:13:51.949Z,36.60
2019-04-07T10:16:41.930Z,37.40
2019-04-07T10:19:36.291Z,37.00
2019-04-07T10:22:25.539Z,36.70
2019-04-07T10:25:13.000Z,36.70
2019-04-07T10:28:09.640Z,36.40
2019-04-07T10:30:59.832Z,37.70
2019-04-07T10:34:12.357Z,38.00
2019-04-07T10:37:06.698Z,37.50
2019-04-07T10:40:01.681Z,36.20
2019-04-07T10:42:57.242Z,35.40
2019-04-07T10:45:50.552Z,35.80
2019-04-07T10:48:37.836Z,36.20
2019-04-07T10:51:28.498Z,35.30
2019-04-07T10:54:21.278Z,35.60
2019-04-07T10:57:03.338Z,34.80
2019-04-07T10:59:53.462Z,35.10
2019-04-07T11:02:53.887Z,35.80
2019-04-07T11:05:52.351Z,35.10
2019-04-07T11:08:52.231Z,34.90
2019-04-07T11:11:43.718Z,35.40
2019-04-07T11:14:31.429Z,34.50
2019-04-07T11:17:21.573Z,34.90
2019-04-07T11:20:17.026Z,34.80
2019-04-07T11:23:11.987Z,34.10
2019-04-07T11:25:57.006Z,33.50
2019-04-07T11:29:02.784Z,33.60
2019-04-07T11:31:48.466Z,33.60
2019-04-07T11:34:52.941Z,34.00
2019-04-07T11:37:37.562Z,33.60
2019-04-07T11:40:29.178Z,32.90
2019-04-07T11:43:10.937Z,32.70
2019-04-07T11:45:57.445Z,32.20
2019-04-07T11:48:33.174Z,31.10
2019-04-07T11:51:28.957Z,30.60
2019-04-07T11:54:17.506Z,30.00
2019-04-07T11:57:08.678Z,30.60
2019-04-07T12:00:00.064Z,30.60
2019-04-07T12:03:06.080Z,29.90
2019-04-07T12:05:53.875Z,28.90
2019-04-07T12:08:45.657Z,28.40
2019-04-07T12:11:31.118Z,28.30
2019-04-07T12:14:21.827Z,29.20
2019-04-07T12:17:19.933Z,29.40
2019-04-07T12:19:58.107Z,28.10
2019-04-07T12:23:01.851Z,27.90
2019-04-07T12:26:02.125Z,28.20
2019-04-07T12:29:10.795Z,27.90
2019-04-07T12:31:51.041Z,28.80
2019-04-07T12:34:41.800Z,28.00
2019-04-07T12:37:50.663Z,27.90
2019-04-07T12:40:59.498Z,28.40
2019-04-07T12:43:49.563Z,28.10
2019-04-07T12:46:38.489Z,27.70
2019-04-07T12:49:32.942Z,26.70
2019-04-07T12:52:29.825Z,26.80
2019-04-07T12:55:16.827Z,26.50
2019-04-07T12:58:21.454Z,26.30
2019-04-07T13:01:16.347Z,25.90
2019-04-07T13:04:13.276Z,25.60
2019-04-07T13:07:07.814Z,25.80
2019-04-07T13:09:55.507Z,25.90
2019-04-07T13:12:57.179Z,25.70
2019-04-07T13:15:46.458Z,26.80
2019-04-07T13:18:42.453Z,27.00
2019-04-07T13:21:45.515Z,24.90
2019-04-07T13:24:37.775Z,25.90
2019-04-07T13:27:22.156Z,24.90
2019-04-07T13:30:08.411Z,25.20
2019-04-07T13:33:00.600Z,24.60
2019-04-07T13:35:49.244Z,24.70
2019-04-07T13:38:46.582Z,24.50
2019-04-07T13:41:45.898Z,24.70
2019-04-07T13:44:38.773Z,24.60
2019-04-07T13:47:20.616Z,24.60
2019-04-07T13:50:02.630Z,25.10
2019-04-07T13:52:57.855Z,24.10
2019-04-07T13:55:48.658Z,24.30
2019-04-07T13:58:38.915Z,23.60
2019-04-07T14:01:37.288Z,23.50
2019-04-07T14:04:40.037Z,23.90
2019-04-07T14:07:37.241Z,22.30
2019-04-07T14:10:33.337Z,23.10
2019-04-07T14:13:37.941Z,23.10
2019-04-07T14:16:15.905Z,22.60
2019-04-07T14:19:17.816Z,22.60
2019-04-07T14:21:58.926Z,22.30
2019-04-07T14:24:53.754Z,22.90
2019-04-07T14:27:33.997Z,21.50
2019-04-07T14:30:42.297Z,22.00
2019-04-07T14:33:24.256Z,22.10
2019-04-07T14:36:25.064Z,22.00
2019-04-07T14:39:29.388Z,22.00
2019-04-07T14:42:34.204Z,22.50
2019-04-07T14:45:20.064Z,22.40
2019-04-07T14:47:59.318Z,22.20
2019-04-07T14:50:47.344Z,21.70
2019-04-07T14:53:36.677Z,21.30
2019-04-07T14:56:40.834Z,21.50
2019-04-07T14:59:52.106Z,21.90
2019-04-07T15:02:25.098Z,22.30
2019-04-07T15:05:01.561Z,21.70
2019-04-07T15:07:53.919Z,22.00
2019-04-07T15:10:30.808Z,21.70
2019-04-07T15:13:07.100Z,22.00
2019-04-07T15:15:40.000Z,22.80
2019-04-07T15:18:13.135Z,23.00
2019-04-07T15:20:47.342Z,23.40
2019-04-07T15:23:21.517Z,23.80
2019-04-07T15:25:55.288Z,24.90
2019-04-07T15:28:30.672Z,23.70
2019-04-07T15:31:04.187Z,23.80
2019-04-07T15:33:37.025Z,24.30
2019-04-07T15:36:10.830Z,24.70
2019-04-07T15:38:44.115Z,24.60
2019-04-07T15:41:18.912Z,24.50
2019-04-07T15:43:50.972Z,24.20
2019-04-07T15:46:23.832Z,24.70
2019-04-07T15:48:56.887Z,24.80
2019-04-07T15:51:34.125Z,25.00
2019-04-07T15:54:04.739Z,24.50
2019-04-07T15:56:38.166Z,24.80
2019-04-07T15:59:11.855Z,24.30
2019-04-07T16:01:45.168Z,24.20
2019-04-07T16:04:23.707Z,24.30
2019-04-07T16:06:52.924Z,23.60
2019-04-07T16:09:36.013Z,24.10
2019-04-07T16:12:00.608Z,23.30
2019-04-07T16:14:33.129Z,23.40
2019-04-07T16:17:07.311Z,24.20
2019-04-07T16:19:43.084Z,23.60
2019-04-07T16:22:15.495Z,24.00
2019-04-07T16:24:51.569Z,23.80
2019-04-07T16:27:26.044Z,24.00
2019-04-07T16:29:58.349Z,24.00
2019-04-07T16:32:32.755Z,23.90
2019-04-07T16:35:06.771Z,24.20
2019-04-07T16:37:40.169Z,24.70
2019-04-07T16:40:14.149Z,24.50
2019-04-07T16:43:01.260Z,24.50
2019-04-07T16:45:22.354Z,24.80
2019-04-07T16:47:56.538Z,25.50
2019-04-07T16:50:30.163Z,25.50
2019-04-07T16:53:03.563Z,25.50
2019-04-07T16:55:48.873Z,25.80
2019-04-07T16:58:18.598Z,26.40
2019-04-07T17:00:51.766Z,26.60
2019-04-07T17:03:25.742Z,26.70
2019-04-07T17:06:01.217Z,26.70
2019-04-07T17:08:33.856Z,27.20
2019-04-07T17:11:08.117Z,27.50
2019-04-07T17:13:42.980Z,27.40
2019-04-07T17:16:22.153Z,27.30
2019-04-07T17:18:56.208Z,27.40
2019-04-07T17:21:30.139Z,27.80
2019-04-07T17:24:04.179Z,27.90
2019-04-07T17:26:39.307Z,28.10
2019-04-07T17:29:17.056Z,28.30
2019-04-07T17:31:48.646Z,28.20
2019-04-07T17:34:21.709Z,28.00
2019-04-07T17:36:56.329Z,28.20
2019-04-07T17:39:43.908Z,28.60
2019-04-07T17:42:18.386Z,28.70
2019-04-07T17:45:13.086Z,28.60
2019-04-07T17:48:20.285Z,28.80
2019-04-07T17:51:12.513Z,29.00
2019-04-07T17:53:58.314Z,29.30
2019-04-07T17:56:43.185Z,29.50
2019-04-07T17:59:35.090Z,29.70
2019-04-07T18:02:30.388Z,29.60
2019-04-07T18:05:24.269Z,29.70
2019-04-07T18:08:10.181Z,29.90
2019-04-07T18:11:04.347Z,30.10
2019-04-07T18:14:13.981Z,30.60
2019-04-07T18:16:55.333Z,31.00
2019-04-07T18:19:38.612Z,30.80
2019-04-07T18:22:29.687Z,31.10
2019-04-07T18:25:21.643Z,31.50
2019-04-07T18:28:07.083Z,31.90
2019-04-07T18:31:15.294Z,32.30
2019-04-07T18:34:25.758Z,32.10
2019-04-07T18:37:18.372Z,32.10
2019-04-07T18:40:09.740Z,32.30
2019-04-07T18:42:59.197Z,32.00
2019-04-07T18:45:52.673Z,31.90
2019-04-07T18:48:38.976Z,32.60
2019-04-07T18:51:27.973Z,32.80
2019-04-07T18:54:13.608Z,33.10
2019-04-07T18:57:05.649Z,33.40
2019-04-07T19:00:03.040Z,33.50
2019-04-07T19:02:48.232Z,33.60
2019-04-07T19:05:33.396Z,33.90
2019-04-07T19:08:27.171Z,34.10
2019-04-07T19:11:15.278Z,34.40
2019-04-07T19:14:25.219Z,34.40
2019-04-07T19:17:08.465Z,34.30
2019-04-07T19:20:12.985Z,34.60
2019-04-07T19:22:58.636Z,34.90
2019-04-07T19:25:48.091Z,35.20
2019-04-07T19:28:42.365Z,35.40
2019-04-07T19:31:32.927Z,35.50
2019-04-07T19:34:28.415Z,35.60
2019-04-07T19:37:22.418Z,35.70
2019-04-07T19:40:14.510Z,35.80
2019-04-07T19:42:52.702Z,35.90
2019-04-07T19:45:50.169Z,36.00
2019-04-07T19:48:42.768Z,36.20
2019-04-07T19:51:39.672Z,36.20
2019-04-07T19:54:29.333Z,36.00
2019-04-07T19:57:27.865Z,35.70
2019-04-07T20:00:23.433Z,35.50
2019-04-07T20:03:20.330Z,35.80
2019-04-07T20:06:07.125Z,36.30
2019-04-07T20:09:11.251Z,36.60
2019-04-07T20:12:02.845Z,36.80
2019-04-07T20:15:00.557Z,36.80
2019-04-07T20:17:56.520Z,36.90
2019-04-07T20:20:43.516Z,36.80
2019-04-07T20:23:28.503Z,36.70
2019-04-07T20:26:26.030Z,36.50
2019-04-07T20:29:39.301Z,36.60
2019-04-07T20:32:33.490Z,37.00
2019-04-07T20:35:39.283Z,37.30
2019-04-07T20:38:31.703Z,37.20
2019-04-07T20:41:29.470Z,36.90
2019-04-07T20:44:23.204Z,36.70
2019-04-07T20:47:16.155Z,36.60
2019-04-07T20:50:12.518Z,36.90
2019-04-07T20:53:21.758Z,37.20
2019-04-07T20:56:18.614Z,37.50
2019-04-07T20:59:13.866Z,37.80
2019-04-07T21:02:11.481Z,37.90
2019-04-07T21:05:12.455Z,37.90
2019-04-07T21:08:12.911Z,37.70
2019-04-07T21:11:01.489Z,37.50
2019-04-07T21:13:47.175Z,37.40
2019-04-07T21:16:34.228Z,38.20
2019-04-07T21:19:14.131Z,37.60
2019-04-07T21:21:58.489Z,37.80
2019-04-07T21:24:38.997Z,37.60
2019-04-07T21:27:33.735Z,37.60
2019-04-07T21:30:14.801Z,37.70
2019-04-07T21:33:13.213Z,37.70
2019-04-07T21:36:06.456Z,37.60
2019-04-07T21:38:56.409Z,37.40
2019-04-07T21:41:50.327Z,37.40
2019-04-07T21:44:50.914Z,37.40
2019-04-07T21:47:36.589Z,37.50
2019-04-07T21:50:31.573Z,37.70
2019-04-07T21:53:33.484Z,37.70
2019-04-07T21:56:20.901Z,37.80
2019-04-07T21:59:11.733Z,38.00
2019-04-07T22:02:11.832Z,38.10
2019-04-07T22:05:02.966Z,38.20
2019-04-07T22:07:55.673Z,38.40
2019-04-07T22:10:30.756Z,38.50
2019-04-07T22:13:06.452Z,38.60
2019-04-07T22:15:45.807Z,38.60
2019-04-07T22:18:14.934Z,38.70
2019-04-07T22:20:52.960Z,38.60
2019-04-07T22:23:25.064Z,38.70
2019-04-07T22:25:59.425Z,38.70
2019-04-07T22:28:33.613Z,38.60
2019-04-07T22:31:10.934Z,38.40
2019-04-07T22:33:42.894Z,38.40
2019-04-07T22:36:17.079Z,38.40
2019-04-07T22:38:54.411Z,38.50
2019-04-07T22:41:27.038Z,38.70
2019-04-07T22:44:00.833Z,38.50
2019-04-07T22:46:35.002Z,38.40
2019-04-07T22:49:07.848Z,38.30
2019-04-07T22:51:44.629Z,38.30
2019-04-07T22:54:16.740Z,38.50
2019-04-07T22:56:52.191Z,38.30
2019-04-07T22:59:26.023Z,38.20
2019-04-07T23:01:59.875Z,38.20
2019-04-07T23:04:34.313Z,38.20
2019-04-07T23:07:08.232Z,38.30
2019-04-07T23:09:42.740Z,38.20
2019-04-07T23:12:16.911Z,38.30
2019-04-07T23:14:51.371Z,38.30
2019-04-07T23:17:24.584Z,38.40
2019-04-07T23:19:58.854Z,38.30
2019-04-07T23:22:32.174Z,38.30
2019-04-07T23:25:05.765Z,38.10
2019-04-07T23:27:38.771Z,38.10
2019-04-07T23:30:14.016Z,38.20
2019-04-07T23:32:47.941Z,38.10
2019-04-07T23:35:22.316Z,38.10
2019-04-07T23:37:55.941Z,38.20
2019-04-07T23:40:30.172Z,38.40
2019-04-07T23:43:04.711Z,38.60
2019-04-07T23:45:38.825Z,38.60
2019-04-07T23:48:12.572Z,38.30
2019-04-07T23:50:46.562Z,38.00
2019-04-07T23:54:14.398Z,38.70
2019-04-07T23:56:48.670Z,37.70
2019-04-07T23:59:22.832Z,38.00
